Terminal Aerodrome Forecast
Issued by NWS

Current Version | Previous Version | Text Only | Print | Product List | Glossary On
Versions: 1 2 3 4 5 6 7 8 9 10 11 12 13 14 15 16
000
FTUS46 KSGX 240520
TAFSNA
TAF
KSNA 240520Z 2406/2506 VRB04KT P6SM SCT012 SCT150
     FM240900 VRB04KT P6SM OVC008
     FM241600 VRB04KT P6SM BKN010
     FM241700 VRB04KT P6SM SCT012 SCT150
     FM242000 22008KT P6SM SCT150
     FM250200 VRB04KT P6SM FEW200=

USA.gov is the U.S. government's official web portal to all federal, state and local government web resources and services.